createdAt,value
2018-06-24T00:00:18.800Z,7.8
2018-06-24T00:01:21.523Z,7.8
2018-06-24T00:02:24.254Z,7.8
2018-06-24T00:03:26.975Z,7.8
2018-06-24T00:04:29.429Z,7.8
2018-06-24T00:05:32.153Z,7.8
2018-06-24T00:06:34.866Z,7.8
2018-06-24T00:07:37.584Z,7.8
2018-06-24T00:08:40.296Z,7.8
2018-06-24T00:09:43.005Z,7.8
2018-06-24T00:10:45.729Z,7.8
2018-06-24T00:11:48.445Z,7.8
2018-06-24T00:12:50.890Z,7.8
2018-06-24T00:13:53.969Z,7.8
2018-06-24T00:14:56.777Z,7.8
2018-06-24T00:15:59.482Z,7.8
2018-06-24T00:17:02.194Z,7.8
2018-06-24T00:18:04.919Z,7.9
2018-06-24T00:19:07.640Z,7.9
2018-06-24T00:20:10.379Z,7.9
2018-06-24T00:21:13.093Z,7.9
2018-06-24T00:22:15.571Z,7.9
2018-06-24T00:23:18.279Z,7.9
2018-06-24T00:24:21.019Z,7.9
2018-06-24T00:25:23.741Z,7.9
2018-06-24T00:26:26.183Z,7.9
2018-06-24T00:27:28.901Z,7.9
2018-06-24T00:28:31.639Z,7.9
2018-06-24T00:29:34.358Z,7.9
2018-06-24T00:30:36.810Z,7.8
2018-06-24T00:31:39.548Z,7.8
2018-06-24T00:32:42.251Z,7.8
2018-06-24T00:33:44.980Z,7.8
2018-06-24T00:34:47.700Z,7.8
2018-06-24T00:35:50.408Z,7.8
2018-06-24T00:36:53.123Z,7.8
2018-06-24T00:37:55.834Z,7.8
2018-06-24T00:38:58.557Z,7.8
2018-06-24T00:40:01.273Z,7.8
2018-06-24T00:41:03.987Z,7.8
2018-06-24T00:42:06.707Z,7.8
2018-06-24T00:43:09.429Z,7.8
2018-06-24T00:44:12.158Z,7.8
2018-06-24T00:45:14.867Z,7.8
2018-06-24T00:46:17.308Z,7.8
2018-06-24T00:47:20.031Z,7.8
2018-06-24T00:48:22.471Z,7.8
2018-06-24T00:49:24.931Z,7.8
2018-06-24T00:50:27.652Z,7.8
2018-06-24T00:51:30.381Z,7.8
2018-06-24T00:52:32.845Z,7.8
2018-06-24T00:53:35.560Z,7.8
2018-06-24T00:54:38.293Z,7.8
2018-06-24T00:55:40.734Z,7.8
2018-06-24T00:56:43.442Z,7.8
2018-06-24T00:57:46.152Z,7.8
2018-06-24T00:58:48.864Z,7.8
2018-06-24T00:59:51.348Z,7.8
2018-06-24T01:00:54.061Z,7.8
2018-06-24T01:01:56.772Z,7.8
2018-06-24T01:02:59.225Z,7.8
2018-06-24T01:04:01.937Z,7.8
2018-06-24T01:05:04.651Z,7.8
2018-06-24T01:06:07.103Z,7.8
2018-06-24T01:07:09.813Z,7.8
2018-06-24T01:08:12.253Z,7.8
2018-06-24T01:09:14.980Z,7.8
2018-06-24T01:10:17.421Z,7.8
2018-06-24T01:11:20.160Z,7.8
2018-06-24T01:12:22.876Z,7.8
2018-06-24T01:13:25.599Z,7.8
2018-06-24T01:14:28.341Z,7.9
2018-06-24T01:15:31.068Z,7.9
2018-06-24T01:16:33.792Z,7.9
2018-06-24T01:17:36.502Z,7.9
2018-06-24T01:18:39.219Z,7.9
2018-06-24T01:19:41.935Z,7.9
2018-06-24T01:20:44.393Z,7.9
2018-06-24T01:21:47.113Z,7.9
2018-06-24T01:22:49.841Z,7.8
2018-06-24T01:23:52.567Z,7.8
2018-06-24T01:24:55.272Z,7.8
2018-06-24T01:25:58.020Z,7.7
2018-06-24T01:27:00.748Z,7.6
2018-06-24T01:28:03.450Z,7.5
2018-06-24T01:29:06.177Z,7.3
2018-06-24T01:30:08.914Z,7.2
2018-06-24T01:31:11.647Z,7.2
2018-06-24T01:32:14.099Z,7.2
2018-06-24T01:33:16.835Z,7.2
2018-06-24T01:34:19.539Z,7.2
2018-06-24T01:35:22.271Z,7.2
2018-06-24T01:36:25.004Z,7.2
2018-06-24T01:37:27.463Z,7.2
2018-06-24T01:38:29.883Z,7.2
2018-06-24T01:39:32.605Z,7.2
2018-06-24T01:40:35.089Z,7.2
2018-06-24T01:41:37.797Z,7.2
2018-06-24T01:42:40.510Z,7.2
2018-06-24T01:43:43.232Z,7.2
2018-06-24T01:44:45.935Z,7.2
2018-06-24T01:45:48.656Z,7.2
2018-06-24T01:46:51.369Z,7.2
2018-06-24T01:47:54.096Z,7.2
2018-06-24T01:48:56.819Z,7.2
2018-06-24T01:49:59.564Z,7.2
2018-06-24T01:51:02.294Z,7.2
2018-06-24T01:52:05.015Z,7.2
2018-06-24T01:53:07.734Z,7.2
2018-06-24T01:54:10.448Z,7.2
2018-06-24T01:55:13.161Z,7.2
2018-06-24T01:56:15.624Z,7.2
2018-06-24T01:57:18.346Z,7.2
2018-06-24T01:58:21.063Z,7.2
2018-06-24T01:59:23.778Z,7.2
2018-06-24T02:00:26.518Z,7.2
2018-06-24T02:01:28.948Z,7.2
2018-06-24T02:02:31.696Z,7.2
2018-06-24T02:03:34.405Z,7.2
2018-06-24T02:04:36.850Z,7.3
2018-06-24T02:05:39.301Z,7.3
2018-06-24T02:06:42.070Z,7.3
2018-06-24T02:07:44.788Z,7.3
2018-06-24T02:08:47.229Z,7.3
2018-06-24T02:09:49.945Z,7.4
2018-06-24T02:10:52.658Z,7.4
2018-06-24T02:11:55.375Z,7.4
2018-06-24T02:12:58.095Z,7.5
2018-06-24T02:14:00.816Z,7.5
2018-06-24T02:15:03.530Z,7.5
2018-06-24T02:16:06.247Z,7.6
2018-06-24T02:17:08.960Z,7.6
2018-06-24T02:18:11.665Z,7.7
2018-06-24T02:19:14.386Z,7.7
2018-06-24T02:20:17.106Z,7.7
2018-06-24T02:21:19.827Z,7.8
2018-06-24T02:22:22.561Z,7.8
2018-06-24T02:23:25.288Z,7.8
2018-06-24T02:24:27.748Z,7.9
2018-06-24T02:25:30.483Z,7.9
2018-06-24T02:26:33.200Z,7.9
2018-06-24T02:27:35.921Z,7.9
2018-06-24T02:28:38.637Z,7.9
2018-06-24T02:29:41.353Z,7.9
2018-06-24T02:30:44.071Z,7.9
2018-06-24T02:31:46.784Z,7.9
2018-06-24T02:32:49.223Z,7.9
2018-06-24T02:33:51.943Z,7.9
2018-06-24T02:34:54.647Z,7.9
2018-06-24T02:35:57.097Z,7.9
2018-06-24T02:36:59.816Z,7.9
2018-06-24T02:38:02.329Z,7.9
2018-06-24T02:39:05.067Z,7.9
2018-06-24T02:40:07.789Z,7.9
2018-06-24T02:41:10.491Z,7.9
2018-06-24T02:42:13.228Z,7.9
2018-06-24T02:43:15.954Z,7.9
2018-06-24T02:44:18.675Z,7.8
2018-06-24T02:45:21.386Z,7.8
2018-06-24T02:46:24.110Z,7.8
2018-06-24T02:47:26.826Z,7.9
2018-06-24T02:48:29.535Z,7.9
2018-06-24T02:49:32.270Z,7.9
2018-06-24T02:50:34.984Z,7.9
2018-06-24T02:51:37.693Z,7.9
2018-06-24T02:52:40.435Z,7.9
2018-06-24T02:53:43.653Z,7.9
2018-06-24T02:54:46.437Z,7.9
2018-06-24T02:55:49.161Z,7.9
2018-06-24T02:56:51.592Z,7.9
2018-06-24T02:57:54.311Z,7.9
2018-06-24T02:58:57.019Z,7.9
2018-06-24T02:59:59.737Z,7.9
2018-06-24T03:01:02.454Z,7.9
2018-06-24T03:02:05.253Z,7.9
2018-06-24T03:03:07.968Z,7.9
2018-06-24T03:04:10.693Z,7.9
2018-06-24T03:05:13.408Z,7.9
2018-06-24T03:06:15.868Z,7.9
2018-06-24T03:07:18.596Z,7.9
2018-06-24T03:08:21.305Z,7.9
2018-06-24T03:09:24.068Z,7.8
2018-06-24T03:10:26.550Z,7.8
2018-06-24T03:11:29.250Z,7.8
2018-06-24T03:12:31.983Z,7.7
2018-06-24T03:13:34.692Z,7.6
2018-06-24T03:14:37.416Z,7.5
2018-06-24T03:15:39.860Z,7.3
2018-06-24T03:16:42.601Z,7.2
2018-06-24T03:17:45.320Z,7.2
2018-06-24T03:18:47.999Z,7.2
2018-06-24T03:19:50.701Z,7.2
2018-06-24T03:20:53.417Z,7.2
2018-06-24T03:21:56.129Z,7.2
2018-06-24T03:22:58.854Z,7.2
2018-06-24T03:24:01.566Z,7.2
2018-06-24T03:25:04.277Z,7.2
2018-06-24T03:26:06.994Z,7.2
2018-06-24T03:27:09.712Z,7.2
2018-06-24T03:28:12.430Z,7.2
2018-06-24T03:29:14.897Z,7.2
2018-06-24T03:30:17.624Z,7.2
2018-06-24T03:31:20.340Z,7.2
2018-06-24T03:32:23.042Z,7.2
2018-06-24T03:33:25.746Z,7.2
2018-06-24T03:34:28.466Z,7.2
2018-06-24T03:35:31.191Z,7.2
2018-06-24T03:36:33.903Z,7.2
2018-06-24T03:37:36.622Z,7.2
2018-06-24T03:38:39.072Z,7.2
2018-06-24T03:39:41.803Z,7.2
2018-06-24T03:40:44.509Z,7.2
2018-06-24T03:41:47.226Z,7.2
2018-06-24T03:42:49.963Z,7.2
2018-06-24T03:43:52.413Z,7.2
2018-06-24T03:44:55.120Z,7.2
2018-06-24T03:45:57.549Z,7.2
2018-06-24T03:46:59.992Z,7.2
2018-06-24T03:48:02.710Z,7.2
2018-06-24T03:49:05.448Z,7.2
2018-06-24T03:50:08.170Z,7.2
2018-06-24T03:51:10.887Z,7.3
2018-06-24T03:52:13.598Z,7.3
2018-06-24T03:53:16.319Z,7.3
2018-06-24T03:54:19.050Z,7.3
2018-06-24T03:55:21.764Z,7.3
2018-06-24T03:56:24.483Z,7.3
2018-06-24T03:57:27.210Z,7.3
2018-06-24T03:58:29.923Z,7.4
2018-06-24T03:59:32.650Z,7.4
2018-06-24T04:00:35.371Z,7.4
2018-06-24T04:01:38.084Z,7.5
2018-06-24T04:02:40.801Z,7.5
2018-06-24T04:03:43.531Z,7.5
2018-06-24T04:04:46.588Z,7.6
2018-06-24T04:05:49.069Z,7.6
2018-06-24T04:06:51.789Z,7.6
2018-06-24T04:07:54.526Z,7.7
2018-06-24T04:08:56.975Z,7.7
2018-06-24T04:09:59.690Z,7.8
2018-06-24T04:11:02.413Z,7.8
2018-06-24T04:12:04.862Z,7.8
2018-06-24T04:13:07.582Z,7.8
2018-06-24T04:14:10.304Z,7.8
2018-06-24T04:15:13.041Z,7.9
2018-06-24T04:16:15.767Z,7.9
2018-06-24T04:17:18.504Z,7.9
2018-06-24T04:18:21.475Z,7.9
2018-06-24T04:19:24.233Z,7.9
2018-06-24T04:20:26.952Z,7.9
2018-06-24T04:21:29.689Z,7.9
2018-06-24T04:22:32.417Z,7.9
2018-06-24T04:23:35.135Z,7.9
2018-06-24T04:24:37.842Z,7.9
2018-06-24T04:25:40.822Z,7.9
2018-06-24T04:26:43.534Z,7.9
2018-06-24T04:27:46.248Z,7.9
2018-06-24T04:28:48.959Z,7.9
2018-06-24T04:29:51.697Z,7.9
2018-06-24T04:30:54.436Z,7.9
2018-06-24T04:31:57.151Z,7.9
2018-06-24T04:32:59.899Z,7.9
2018-06-24T04:34:02.625Z,7.9
2018-06-24T04:35:05.347Z,7.9
2018-06-24T04:36:08.072Z,7.9
2018-06-24T04:37:10.787Z,7.9
2018-06-24T04:38:13.508Z,7.9
2018-06-24T04:39:16.230Z,7.9
2018-06-24T04:40:18.415Z,7.8
2018-06-24T04:41:21.127Z,7.8
2018-06-24T04:42:23.852Z,7.8
2018-06-24T04:43:26.563Z,7.8
2018-06-24T04:44:29.017Z,7.8
2018-06-24T04:45:31.731Z,7.8
2018-06-24T04:46:34.440Z,7.8
2018-06-24T04:47:37.159Z,7.8
2018-06-24T04:48:39.910Z,7.9
2018-06-24T04:49:42.627Z,7.9
2018-06-24T04:50:45.354Z,7.9
2018-06-24T04:51:48.588Z,7.9
2018-06-24T04:52:51.308Z,7.9
2018-06-24T04:53:54.062Z,7.9
2018-06-24T04:54:56.771Z,7.9
2018-06-24T04:55:59.484Z,7.9
2018-06-24T04:57:01.932Z,7.9
2018-06-24T04:58:04.650Z,7.9
2018-06-24T04:59:07.364Z,7.9
2018-06-24T05:00:10.070Z,7.8
2018-06-24T05:01:12.519Z,7.8
2018-06-24T05:02:15.230Z,7.8
2018-06-24T05:03:17.954Z,7.8
2018-06-24T05:04:20.654Z,7.7
2018-06-24T05:05:23.092Z,7.6
2018-06-24T05:06:26.027Z,7.5
2018-06-24T05:07:28.729Z,7.4
2018-06-24T05:08:31.192Z,7.2
2018-06-24T05:09:33.896Z,7.2
2018-06-24T05:10:36.616Z,7.2
2018-06-24T05:11:39.340Z,7.2
2018-06-24T05:12:42.062Z,7.2
2018-06-24T05:13:44.770Z,7.2
2018-06-24T05:14:47.500Z,7.2
2018-06-24T05:15:50.215Z,7.2
2018-06-24T05:16:52.938Z,7.2
2018-06-24T05:17:55.651Z,7.2
2018-06-24T05:18:58.373Z,7.2
2018-06-24T05:20:01.098Z,7.2
2018-06-24T05:21:03.810Z,7.2
2018-06-24T05:22:06.548Z,7.2
2018-06-24T05:23:09.270Z,7.2
2018-06-24T05:24:11.972Z,7.2
2018-06-24T05:25:14.689Z,7.2
2018-06-24T05:26:17.405Z,7.2
2018-06-24T05:27:20.153Z,7.2
2018-06-24T05:28:22.871Z,7.2
2018-06-24T05:29:25.589Z,7.2
2018-06-24T05:30:28.302Z,7.2
2018-06-24T05:31:31.022Z,7.2
2018-06-24T05:32:33.737Z,7.2
2018-06-24T05:33:36.452Z,7.2
2018-06-24T05:34:38.909Z,7.2
2018-06-24T05:35:41.625Z,7.3
2018-06-24T05:36:44.350Z,7.4
2018-06-24T05:37:47.296Z,7.4
2018-06-24T05:38:50.008Z,7.5
2018-06-24T05:39:52.730Z,7.6
2018-06-24T05:40:55.459Z,7.7
2018-06-24T05:41:58.189Z,7.8
2018-06-24T05:43:00.723Z,7.8
2018-06-24T05:44:03.458Z,7.9
2018-06-24T05:45:06.184Z,7.9
2018-06-24T05:46:08.909Z,7.9
2018-06-24T05:47:11.364Z,7.9
2018-06-24T05:48:14.085Z,7.9
2018-06-24T05:49:16.798Z,7.9
2018-06-24T05:50:19.517Z,7.8
2018-06-24T05:51:22.239Z,7.8
2018-06-24T05:52:25.000Z,7.8
2018-06-24T05:53:27.719Z,7.8
2018-06-24T05:54:30.438Z,7.8
2018-06-24T05:55:33.176Z,7.8
2018-06-24T05:56:35.896Z,7.8
2018-06-24T05:57:38.601Z,7.9
2018-06-24T05:58:41.313Z,7.9
2018-06-24T05:59:44.038Z,7.9
2018-06-24T06:00:46.761Z,7.9
2018-06-24T06:01:49.490Z,7.9
2018-06-24T06:02:52.475Z,7.9
2018-06-24T06:03:55.241Z,7.9
2018-06-24T06:04:57.970Z,7.8
2018-06-24T06:06:00.677Z,7.8
2018-06-24T06:07:03.410Z,7.9
